• Join FlightAware (Why Join?)
  • Login
  • US Flag 
Rudolph Flight #1: Arrived! 
04:24AM EST


 

Airport Tracker/Info


-or-


 

Live Flight TrackerFlight Track Log ✈ FLG3862 ✈ 25-Apr-2013 ✈ KDTW - KBTV

Flight Track Log - Related Links

Times and Time Zones

All times are in EDT time to prevent confusion due to time zone crossing. See the FLG3862 flight status page for this flight to view local times or setup timezone preferences in your user account.

Time Position Orientation Groundspeed Altitude Reporting Facility
EDT Latitude Longitude Course Direction KTS MPH feet Rate Location/Type
10:38AM 42.2081 -83.3528 94° East 137 158 1,300  Level Cleveland Center
10:39AM 42.1603 -83.3453 173° South 191 220 3,700 2,460 Climbing Cleveland Center
10:41AM 42.0897 -83.3281 170° South 257 296 6,600 2,760 Climbing Cleveland Center
10:41AM 42.0622 -83.2514 116° Southeast 303 349 9,100 1,920 Climbing Cleveland Center
10:42AM 42.3212 -82.7045 82° East  Level FlightAware Approximate
10:42AM 42.0814 -83.1486 76° East 370 426 10,000  Level Cleveland Center
10:43AM 42.3439 -82.5411 71° East  Level FlightAware Approximate
10:43AM 42.1319 -83.0247 61° Northeast 379 436 11,700  Level Cleveland Center
10:44AM 42.3657 -82.3825 94° East  Level FlightAware Approximate
10:44AM 42.1847 -82.8950 61° Northeast 390 449 13,000  Level Cleveland Center
10:45AM 42.2394 -82.7625 61° Northeast 404 465 13,600 1,380 Climbing Cleveland Center
10:46AM 42.2939 -82.6322 61° Northeast 404 465 15,800 1,980 Climbing Cleveland Center
10:47AM 42.3506 -82.4964 61° Northeast 404 465 17,600 1,620 Climbing Cleveland Center
10:48AM 42.3633 -82.3422 84° East 397 457 19,100 1,380 Climbing Cleveland Center
10:49AM 42.3553 -82.1819 94° East 407 468 20,400 1,200 Climbing Cleveland Center
10:50AM 42.3492 -82.0047 93° East 422 486 21,500 1,020 Climbing Cleveland Center
10:51AM 42.3408 -81.8303 94° East 446 513 22,500 900 Climbing Cleveland Center
10:52AM 42.3322 -81.6506 94° East 462 532 23,400 960 Climbing Cleveland Center
10:53AM 42.3256 -81.4733 93° East 462 532 24,500 1,020 Climbing Cleveland Center
10:54AM 42.3183 -81.2936 93° East 468 539 25,500 900 Climbing Cleveland Center
10:55AM 42.3069 -81.1167 95° East 473 544 26,400 720 Climbing Cleveland Center
10:56AM 42.2992 -80.9536 94° East 478 550 27,000 300 Climbing Cleveland Center
10:57AM 42.2892 -80.7656 94° East 483 556 27,000  Level Cleveland Center
10:58AM 42.2767 -80.5803 95° East 491 565 27,000  Level Cleveland Center
10:59AM 42.3247 -80.4033 70° East 486 559 27,000  Level Cleveland Center
11:00AM 42.3825 -80.2347 65° Northeast 494 568 27,000  Level Cleveland Center
11:01AM 42.4425 -80.0600 65° Northeast 505 581 27,000  Level Cleveland Center
11:02AM 42.5081 -79.8678 65° Northeast 510 587 27,000  Level Cleveland Center
11:03AM 42.5672 -79.6894 66° East 505 581 27,000  Level Cleveland Center
11:04AM 42.6242 -79.5139 66° East 505 581 27,000  Level Cleveland Center
11:05AM 42.6806 -79.3378 66° East 505 581 27,000  Level Cleveland Center
11:06AM 42.7392 -79.1642 65° Northeast 505 581 27,000  Level Cleveland Center
11:07AM 42.7953 -78.9844 67° East 505 581 27,000  Level Cleveland Center
11:08AM 42.8508 -78.8075 67° East 505 581 27,000  Level Cleveland Center
11:09AM 42.9086 -78.6358 65° Northeast 505 581 27,000  Level Cleveland Center
11:10AM 42.9639 -78.4553 67° East 505 581 27,000  Level Cleveland Center
11:11AM 43.0186 -78.2775 67° East 505 581 27,000  Level Cleveland Center
11:12AM 43.0733 -78.0992 67° East 500 575 27,000  Level Cleveland Center
11:13AM 43.1278 -77.9206 67° East 506 582 27,000  Level Cleveland Center
11:14AM 43.1803 -77.7617 66° East 506 582 27,000  Level Cleveland Center
11:15AM 43.2342 -77.5797 68° East 506 582 27,000  Level Cleveland Center
11:16AM 43.2897 -77.3972 67° East 506 582 27,000  Level Cleveland Center
11:18AM 43.3878 -77.0322 70° East 484 557 27,000  Level Boston Center
11:19AM 43.4100 -76.8364 81° East 490 564 27,000  Level Boston Center
11:20AM 43.4319 -76.6408 81° East 507 583 27,000  Level Boston Center
11:21AM 43.4533 -76.4475 81° East 514 592 27,000  Level Boston Center
11:22AM 43.4747 -76.2544 81° East 514 592 27,000  Level Boston Center
11:23AM 43.4936 -76.0608 82° East 519 597 27,000  Level Boston Center
11:24AM 43.5139 -75.8703 82° East 519 597 27,000  Level Boston Center
11:25AM 43.5342 -75.6767 82° East 519 597 27,000  Level Boston Center
11:26AM 43.5542 -75.4828 82° East 514 592 27,000  Level Boston Center
11:27AM 43.5717 -75.2886 83° East 514 592 27,000  Level Boston Center
11:28AM 43.5692 -75.3065 83° East  Level FlightAware Approximate
11:28AM 43.5908 -75.0919 82° East 514 592 27,000  Level Boston Center
11:29AM 43.6078 -74.9003 83° East 508 585 26,900 -600 Descending Boston Center
11:30AM 43.6242 -74.7031 83° East 508 585 25,900 -1,200 Descending Boston Center
11:31AM 43.6425 -74.5117 82° East 508 585 24,500 -1,740 Descending Boston Center
11:32AM 43.6561 -74.3342 84° East 491 565 22,500 -2,160 Descending Boston Center
11:34AM 43.7314 -74.1728 57° Northeast 425 489 19,800 -2,160 Descending Boston Center
11:35AM 43.8144 -74.0569 45° Northeast 412 474 17,800 -2,100 Descending Boston Center
11:36AM 43.8953 -73.9439 45° Northeast 412 474 15,600 -2,280 Descending Boston Center
11:37AM 43.9800 -73.8308 44° Northeast 391 450 13,300 -2,100 Descending Boston Center
11:38AM 44.0497 -73.7342 45° Northeast 368 423 11,400 -1,620 Descending Boston Center
11:39AM 44.1133 -73.6489 44° Northeast 330 380 10,100 -1,380 Descending Boston Center
11:40AM 44.1703 -73.5717 44° Northeast 296 341 8,700 -1,500 Descending Boston Center
11:41AM 44.2044 -73.4856 61° Northeast 280 322 7,100 -1,680 Descending Boston Center
11:42AM 44.2344 -73.3875 67° East 272 313 5,400 -1,500 Descending Boston Center
11:43AM 44.2644 -73.2953 66° East 267 307 4,100 -900 Descending Boston Center
11:44AM 44.3147 -73.2322 42° Northeast 249 287 3,600 -540 Descending Boston Center